Overview Statistics Trail Chart Weather Telemetry Raw packets
 

This is the latest recevied weather packets stored in our database for station/object IZ2MHJ-3. If no packets are shown the sender has not sent any weather packets the latest 10 day(s).

<< 24 25 26 27 28 29 >>
Time Temp. Humidity Pressure Rain* Wind** Luminosity Snow
1787786409 24.44° C 76% 1018.6 hPa - - - -
1787785208 24.44° C 75% 1018.6 hPa - - - -
1787784008 25° C 75% 1018.7 hPa - - - -
1787782808 25.56° C 73% 1018.7 hPa - - - -
1787781607 25.56° C 72% 1018.2 hPa - - - -
1787780407 25.56° C 73% 1018.8 hPa - - - -
1787779207 25.56° C 73% 1018.5 hPa - - - -
1787778006 26.11° C 72% 1018.5 hPa - - - -
1787776806 26.67° C 70% 1018.4 hPa - - - -
1787775606 26.11° C 72% 1018.2 hPa - - - -
1787774407 27.22° C 68% 1018.1 hPa - - - -
1787773205 27.22° C 70% 1018.1 hPa - - - -
1787772005 28.33° C 65% 1017.7 hPa - - - -
1787770805 27.78° C 66% 1017.8 hPa - - - -
1787769604 28.33° C 62% 1017.6 hPa - - - -
1787768404 28.89° C 62% 1017.7 hPa - - - -
1787767203 28.89° C 62% 1017.6 hPa - - - -
1787766003 29.44° C 60% 1017.4 hPa - - - -
1787764803 30° C 58% 1017 hPa - - - -
1787763603 29.44° C 59% 1017 hPa - - - -
1787762402 29.44° C 60% 1017.1 hPa - - - -
1787761202 31.11° C 53% 1016.9 hPa - - - -
1787760002 31.67° C 51% 1016.8 hPa - - - -
1787758801 32.22° C 49% 1016.7 hPa - - - -
1787757601 33.33° C 47% 1016.5 hPa - - - -

* Rain since midnight (hover to see other rain measurements)
** Current wind speed in m/s (hover to see current wind gust speed)